createdAt,value
2017-08-08T00:00:32.069Z,3.60
2017-08-08T00:02:59.607Z,3.80
2017-08-08T00:05:27.122Z,4.67
2017-08-08T00:07:55.427Z,4.67
2017-08-08T00:10:22.942Z,4.10
2017-08-08T00:12:50.480Z,4.47
2017-08-08T00:15:18.001Z,4.30
2017-08-08T00:17:45.546Z,5.20
2017-08-08T00:20:13.062Z,3.90
2017-08-08T00:22:41.369Z,3.87
2017-08-08T00:25:08.881Z,4.20
2017-08-08T00:27:37.173Z,5.47
2017-08-08T00:30:04.710Z,4.60
2017-08-08T00:32:32.239Z,4.17
2017-08-08T00:34:59.775Z,4.03
2017-08-08T00:37:27.294Z,4.60
2017-08-08T00:39:54.836Z,4.50
2017-08-08T00:42:22.359Z,4.70
2017-08-08T00:44:49.890Z,4.40
2017-08-08T00:47:17.415Z,4.37
2017-08-08T00:49:44.951Z,4.97
2017-08-08T00:52:12.475Z,4.90
2017-08-08T00:54:40.017Z,4.10
2017-08-08T00:57:07.546Z,4.20
2017-08-08T00:59:35.848Z,4.67
2017-08-08T01:02:03.373Z,5.40
2017-08-08T01:04:30.921Z,4.47
2017-08-08T01:06:58.442Z,5.23
2017-08-08T01:09:25.999Z,5.50
2017-08-08T01:11:53.522Z,6.10
2017-08-08T01:14:21.048Z,5.77
2017-08-08T01:16:48.592Z,5.63
2017-08-08T01:19:16.117Z,4.87
2017-08-08T01:21:44.419Z,4.00
2017-08-08T01:24:11.933Z,4.70
2017-08-08T01:26:39.466Z,5.23
2017-08-08T01:29:07.760Z,4.40
2017-08-08T01:31:35.298Z,4.20
2017-08-08T01:34:02.822Z,5.50
2017-08-08T01:36:30.359Z,4.63
2017-08-08T01:38:57.883Z,5.03
2017-08-08T01:41:26.193Z,4.00
2017-08-08T01:43:53.713Z,5.03
2017-08-08T01:46:21.249Z,4.53
2017-08-08T01:48:49.559Z,3.90
2017-08-08T01:51:17.074Z,5.27
2017-08-08T01:53:45.387Z,4.90
2017-08-08T01:56:12.910Z,5.30
2017-08-08T01:58:40.451Z,4.87
2017-08-08T02:01:07.967Z,5.60
2017-08-08T02:03:35.542Z,5.20
2017-08-08T02:06:03.067Z,4.93
2017-08-08T02:08:30.610Z,4.33
2017-08-08T02:10:58.132Z,5.53
2017-08-08T02:13:25.655Z,4.70
2017-08-08T02:15:53.195Z,5.50
2017-08-08T02:18:20.721Z,5.03
2017-08-08T02:20:48.267Z,4.93
2017-08-08T02:23:15.786Z,4.47
2017-08-08T02:25:44.090Z,5.47
2017-08-08T02:28:11.615Z,4.03
2017-08-08T02:30:39.151Z,5.40
2017-08-08T02:33:06.679Z,4.80
2017-08-08T02:35:34.220Z,5.90
2017-08-08T02:38:01.746Z,5.00
2017-08-08T02:40:29.293Z,5.50
2017-08-08T02:42:56.814Z,6.07
2017-08-08T02:45:24.339Z,5.73
2017-08-08T02:47:52.643Z,6.07
2017-08-08T02:50:20.162Z,5.00
2017-08-08T02:52:47.699Z,5.60
2017-08-08T02:55:15.219Z,4.90
2017-08-08T02:57:42.761Z,6.33
2017-08-08T03:00:11.050Z,4.97
2017-08-08T03:02:38.600Z,5.43
2017-08-08T03:05:06.129Z,5.17
2017-08-08T03:07:33.666Z,5.00
2017-08-08T03:10:01.185Z,5.70
2017-08-08T03:12:28.747Z,4.70
2017-08-08T03:14:56.271Z,5.07
2017-08-08T03:17:23.801Z,5.07
2017-08-08T03:19:51.337Z,5.10
2017-08-08T03:22:18.862Z,4.50
2017-08-08T03:24:46.405Z,4.97
2017-08-08T03:27:13.926Z,4.53
2017-08-08T03:29:41.473Z,4.53
2017-08-08T03:32:09.004Z,4.33
2017-08-08T03:34:37.310Z,4.87
2017-08-08T03:37:04.831Z,5.30
2017-08-08T03:39:32.367Z,4.50
2017-08-08T03:41:59.882Z,5.30
2017-08-08T03:44:28.197Z,4.60
2017-08-08T03:46:56.483Z,5.47
2017-08-08T03:49:24.791Z,5.20
2017-08-08T03:51:52.311Z,5.77
2017-08-08T03:54:19.830Z,5.47
2017-08-08T03:56:48.144Z,4.70
2017-08-08T03:59:15.664Z,4.93
2017-08-08T04:01:43.962Z,4.87
2017-08-08T04:04:11.478Z,4.27
2017-08-08T04:06:39.024Z,4.80
2017-08-08T04:09:06.547Z,6.00
2017-08-08T04:11:34.087Z,6.07
2017-08-08T04:14:01.602Z,5.20
2017-08-08T04:16:29.142Z,5.17
2017-08-08T04:18:57.429Z,4.77
2017-08-08T04:21:25.744Z,5.77
2017-08-08T04:23:53.262Z,6.40
2017-08-08T04:26:20.812Z,5.33
2017-08-08T04:28:48.344Z,5.10
2017-08-08T04:31:15.863Z,5.60
2017-08-08T04:33:43.459Z,5.67
2017-08-08T04:36:10.978Z,5.30
2017-08-08T04:38:38.518Z,4.87
2017-08-08T04:41:06.033Z,5.30
2017-08-08T04:43:33.575Z,4.50
2017-08-08T04:46:01.097Z,5.03
2017-08-08T04:48:28.626Z,4.90
2017-08-08T04:50:56.147Z,5.07
2017-08-08T04:53:23.701Z,4.53
2017-08-08T04:55:51.218Z,4.17
2017-08-08T04:58:18.755Z,4.80
2017-08-08T05:00:46.307Z,4.90
2017-08-08T05:03:13.827Z,5.30
2017-08-08T05:05:41.362Z,4.70
2017-08-08T05:08:08.875Z,4.97
2017-08-08T05:10:36.415Z,4.87
2017-08-08T05:13:03.949Z,4.90
2017-08-08T05:15:31.494Z,4.70
2017-08-08T05:17:59.020Z,4.40
2017-08-08T05:20:26.563Z,4.53
2017-08-08T05:22:54.082Z,4.60
2017-08-08T05:25:21.635Z,4.23
2017-08-08T05:27:49.920Z,4.37
2017-08-08T05:30:17.438Z,5.27
2017-08-08T05:32:44.983Z,5.10
2017-08-08T05:35:12.498Z,4.37
2017-08-08T05:37:40.034Z,4.47
2017-08-08T05:40:08.318Z,4.57
2017-08-08T05:42:36.666Z,4.77
2017-08-08T05:45:04.193Z,4.37
2017-08-08T05:47:31.731Z,4.53
2017-08-08T05:49:59.251Z,4.00
2017-08-08T05:52:26.787Z,4.17
2017-08-08T05:54:54.305Z,4.30
2017-08-08T05:57:21.839Z,3.77
2017-08-08T05:59:49.366Z,4.73
2017-08-08T06:02:16.905Z,5.70
2017-08-08T06:04:45.191Z,4.50
2017-08-08T06:07:12.713Z,4.50
2017-08-08T06:09:40.255Z,3.93
2017-08-08T06:12:07.780Z,4.30
2017-08-08T06:14:35.319Z,4.03
2017-08-08T06:17:03.610Z,4.33
2017-08-08T06:19:31.150Z,4.60
2017-08-08T06:21:59.430Z,4.13
2017-08-08T06:24:26.968Z,4.20
2017-08-08T06:26:54.492Z,3.90
2017-08-08T06:29:22.026Z,4.97
2017-08-08T06:31:49.543Z,4.03
2017-08-08T06:34:17.841Z,4.40
2017-08-08T06:36:45.354Z,4.40
2017-08-08T06:39:12.896Z,4.70
2017-08-08T06:41:40.423Z,4.67
2017-08-08T06:44:07.948Z,3.90
2017-08-08T06:46:35.489Z,4.23
2017-08-08T06:49:03.781Z,4.47
2017-08-08T06:51:31.325Z,4.10
2017-08-08T06:53:58.843Z,3.90
2017-08-08T06:56:26.387Z,5.60
2017-08-08T06:58:53.912Z,4.77
2017-08-08T07:01:21.446Z,4.33
2017-08-08T07:03:48.961Z,3.90
2017-08-08T07:06:16.497Z,4.10
2017-08-08T07:08:44.016Z,3.87
2017-08-08T07:11:12.327Z,3.90
2017-08-08T07:13:39.852Z,3.90
2017-08-08T07:16:07.407Z,4.73
2017-08-08T07:18:34.927Z,4.50
2017-08-08T07:21:02.442Z,4.37
2017-08-08T07:23:29.982Z,3.80
2017-08-08T07:25:57.503Z,3.60
2017-08-08T07:28:25.811Z,4.23
2017-08-08T07:30:53.337Z,3.90
2017-08-08T07:33:20.879Z,3.80
2017-08-08T07:35:48.395Z,3.90
2017-08-08T07:38:15.945Z,3.67
2017-08-08T07:40:43.474Z,3.47
2017-08-08T07:43:11.011Z,3.63
2017-08-08T07:45:38.527Z,4.43
2017-08-08T07:48:06.836Z,4.07
2017-08-08T07:50:34.360Z,3.87
2017-08-08T07:53:01.891Z,3.20
2017-08-08T07:55:30.195Z,3.70
2017-08-08T07:57:57.719Z,4.30
2017-08-08T08:00:25.264Z,4.00
2017-08-08T08:02:53.550Z,4.80
2017-08-08T08:05:21.092Z,3.90
2017-08-08T08:07:48.625Z,4.10
2017-08-08T08:10:16.162Z,4.23
2017-08-08T08:12:43.679Z,3.47
2017-08-08T08:15:11.214Z,3.53
2017-08-08T08:17:38.740Z,4.70
2017-08-08T08:20:06.292Z,4.80
2017-08-08T08:22:33.813Z,4.60
2017-08-08T08:25:01.335Z,4.00
2017-08-08T08:27:28.876Z,4.17
2017-08-08T08:29:57.159Z,4.53
2017-08-08T08:32:24.699Z,3.77
2017-08-08T08:34:52.222Z,4.03
2017-08-08T08:37:19.758Z,4.10
2017-08-08T08:39:48.042Z,4.10
2017-08-08T08:42:16.347Z,4.43
2017-08-08T08:44:43.866Z,4.10
2017-08-08T08:47:11.405Z,4.00
2017-08-08T08:49:38.926Z,3.90
2017-08-08T08:52:07.238Z,3.17
2017-08-08T08:54:34.758Z,4.60
2017-08-08T08:57:02.275Z,3.67
2017-08-08T08:59:29.816Z,3.60
2017-08-08T09:01:57.341Z,3.60
2017-08-08T09:04:24.875Z,3.50
2017-08-08T09:06:52.390Z,3.90
2017-08-08T09:09:19.932Z,3.70
2017-08-08T09:11:47.459Z,3.97
2017-08-08T09:14:15.012Z,4.20
2017-08-08T09:16:43.303Z,3.93
2017-08-08T09:19:10.844Z,4.37
2017-08-08T09:21:38.371Z,4.77
2017-08-08T09:24:06.684Z,3.53
2017-08-08T09:26:35.034Z,3.63
2017-08-08T09:29:02.561Z,4.63
2017-08-08T09:31:30.099Z,3.80
2017-08-08T09:33:57.671Z,5.07
2017-08-08T09:36:25.207Z,3.53
2017-08-08T09:38:52.723Z,4.00
2017-08-08T09:41:20.262Z,3.87
2017-08-08T09:43:48.551Z,4.23
2017-08-08T09:46:16.087Z,4.03
2017-08-08T09:48:43.612Z,3.90
2017-08-08T09:51:11.146Z,3.70
2017-08-08T09:53:38.671Z,4.10
2017-08-08T09:56:06.186Z,4.03
2017-08-08T09:58:34.497Z,3.90
2017-08-08T10:01:02.015Z,4.10
2017-08-08T10:03:29.560Z,4.60
2017-08-08T10:05:57.081Z,3.93
2017-08-08T10:08:24.618Z,4.10
2017-08-08T10:10:52.134Z,4.80
2017-08-08T10:13:20.447Z,4.50
2017-08-08T10:15:47.972Z,5.00
2017-08-08T10:18:15.532Z,4.10
2017-08-08T10:20:43.057Z,3.73
2017-08-08T10:23:10.590Z,4.93
2017-08-08T10:25:38.138Z,4.40
2017-08-08T10:28:05.666Z,3.93
2017-08-08T10:30:33.208Z,4.97
2017-08-08T10:33:00.733Z,4.13
2017-08-08T10:35:28.283Z,4.80
2017-08-08T10:37:55.808Z,5.00
2017-08-08T10:40:23.345Z,4.13
2017-08-08T10:42:51.641Z,5.67
2017-08-08T10:45:19.175Z,4.50
2017-08-08T10:47:46.694Z,4.93
2017-08-08T10:50:14.231Z,4.83
2017-08-08T10:52:41.754Z,4.47
2017-08-08T10:55:09.286Z,3.97
2017-08-08T10:57:36.834Z,4.47
2017-08-08T11:00:04.359Z,4.37
2017-08-08T11:02:31.900Z,4.33
2017-08-08T11:05:00.182Z,4.00
2017-08-08T11:07:27.739Z,4.70
2017-08-08T11:09:55.267Z,4.17
2017-08-08T11:12:22.804Z,4.50
2017-08-08T11:14:51.098Z,4.60
2017-08-08T11:17:18.641Z,4.47
2017-08-08T11:19:46.167Z,4.10
2017-08-08T11:22:14.478Z,4.57
2017-08-08T11:24:42.000Z,5.50
2017-08-08T11:27:10.302Z,4.57
2017-08-08T11:29:37.835Z,5.80
2017-08-08T11:32:05.360Z,4.70
2017-08-08T11:34:33.675Z,5.10
2017-08-08T11:37:01.203Z,4.90
2017-08-08T11:39:29.502Z,4.93
2017-08-08T11:41:57.023Z,5.53
2017-08-08T11:44:25.325Z,4.07
2017-08-08T11:46:53.618Z,4.13
2017-08-08T11:49:21.155Z,4.83
2017-08-08T11:51:48.674Z,4.00
2017-08-08T11:54:16.226Z,4.67
2017-08-08T11:56:43.750Z,4.23
2017-08-08T11:59:11.289Z,4.13
2017-08-08T12:01:38.827Z,4.50
2017-08-08T12:04:06.347Z,4.70
2017-08-08T12:06:33.882Z,4.63
2017-08-08T12:09:01.405Z,4.40
2017-08-08T12:11:28.947Z,4.40
2017-08-08T12:13:56.475Z,5.20
2017-08-08T12:16:24.020Z,5.33
2017-08-08T12:18:51.538Z,3.87
2017-08-08T12:21:19.075Z,4.50
2017-08-08T12:23:46.607Z,5.93
2017-08-08T12:26:14.149Z,3.87
2017-08-08T12:28:41.676Z,4.73
2017-08-08T12:31:09.222Z,4.77
2017-08-08T12:33:36.747Z,4.27
2017-08-08T12:36:04.262Z,4.83
2017-08-08T12:38:31.803Z,4.60
2017-08-08T12:40:59.320Z,4.77
2017-08-08T12:43:27.633Z,4.03
2017-08-08T12:45:55.168Z,3.77
2017-08-08T12:48:22.711Z,4.57
2017-08-08T12:50:50.240Z,4.90
2017-08-08T12:53:17.775Z,5.27
2017-08-08T12:55:45.286Z,4.60
2017-08-08T12:58:12.826Z,4.30
2017-08-08T13:00:40.342Z,4.47
2017-08-08T13:03:07.882Z,4.37
2017-08-08T13:05:35.407Z,4.57
2017-08-08T13:08:02.930Z,4.90
2017-08-08T13:10:30.467Z,5.13
2017-08-08T13:12:57.981Z,4.60
2017-08-08T13:15:25.518Z,4.20
2017-08-08T13:17:53.043Z,4.90
2017-08-08T13:20:21.355Z,4.23
2017-08-08T13:22:48.875Z,4.03
2017-08-08T13:25:16.424Z,4.20
2017-08-08T13:27:43.948Z,4.10
2017-08-08T13:30:12.251Z,4.03
2017-08-08T13:32:39.766Z,4.40
2017-08-08T13:35:07.306Z,5.00
2017-08-08T13:37:34.826Z,4.70
2017-08-08T13:40:03.112Z,3.93
2017-08-08T13:42:30.659Z,4.10
2017-08-08T13:44:58.947Z,4.40
2017-08-08T13:47:27.255Z,4.73
2017-08-08T13:49:54.785Z,4.10
2017-08-08T13:52:22.331Z,4.97
2017-08-08T13:54:49.860Z,4.33
2017-08-08T13:57:18.167Z,4.40
2017-08-08T13:59:45.687Z,5.60
2017-08-08T14:02:13.237Z,5.50
2017-08-08T14:04:40.754Z,4.50
2017-08-08T14:07:08.280Z,5.30
2017-08-08T14:09:35.830Z,5.80
2017-08-08T14:12:03.357Z,5.40
2017-08-08T14:14:30.902Z,4.63
2017-08-08T14:16:58.418Z,5.17
2017-08-08T14:19:25.969Z,4.83
2017-08-08T14:21:53.486Z,5.60
2017-08-08T14:24:21.036Z,5.00
2017-08-08T14:26:49.323Z,5.00
2017-08-08T14:29:16.875Z,5.30
2017-08-08T14:31:44.390Z,5.77
2017-08-08T14:34:12.705Z,5.30
2017-08-08T14:36:40.223Z,5.40
2017-08-08T14:39:07.743Z,5.77
2017-08-08T14:41:35.283Z,4.97
2017-08-08T14:44:02.802Z,5.20
2017-08-08T14:46:31.108Z,5.10
2017-08-08T14:48:58.623Z,5.53
2017-08-08T14:51:26.163Z,5.03
2017-08-08T14:53:53.684Z,5.20
2017-08-08T14:56:21.230Z,4.93
2017-08-08T14:58:48.754Z,5.20
2017-08-08T15:01:16.295Z,4.90
2017-08-08T15:03:43.814Z,4.60
2017-08-08T15:06:12.114Z,4.77
2017-08-08T15:08:40.410Z,4.77
2017-08-08T15:11:07.950Z,5.30
2017-08-08T15:13:35.474Z,4.00
2017-08-08T15:16:02.999Z,5.13
2017-08-08T15:18:30.539Z,4.40
2017-08-08T15:20:58.064Z,4.10
2017-08-08T15:23:26.365Z,5.00
2017-08-08T15:25:53.891Z,5.50
2017-08-08T15:28:21.427Z,5.43
2017-08-08T15:30:48.952Z,4.90
2017-08-08T15:33:16.496Z,4.47
2017-08-08T15:35:44.020Z,3.70
2017-08-08T15:38:11.572Z,4.00
2017-08-08T15:40:39.101Z,3.60
2017-08-08T15:43:06.660Z,5.10
2017-08-08T15:45:34.183Z,4.50
2017-08-08T15:48:01.716Z,4.20
2017-08-08T15:50:29.267Z,4.07
2017-08-08T15:52:56.788Z,4.40
2017-08-08T15:55:24.328Z,4.43
2017-08-08T15:57:52.616Z,4.23
2017-08-08T16:00:20.923Z,4.10
2017-08-08T16:02:49.211Z,4.37
2017-08-08T16:05:16.746Z,3.50
2017-08-08T16:07:44.263Z,3.87
2017-08-08T16:10:12.562Z,3.13
2017-08-08T16:12:40.078Z,2.60
2017-08-08T16:15:07.620Z,3.13
2017-08-08T16:17:35.143Z,2.40
2017-08-08T16:20:02.683Z,3.03
2017-08-08T16:22:30.214Z,2.73
2017-08-08T16:24:58.504Z,2.70
2017-08-08T16:27:26.047Z,2.50
2017-08-08T16:29:53.562Z,2.57
2017-08-08T16:32:21.104Z,3.00
2017-08-08T16:34:48.632Z,3.03
2017-08-08T16:37:16.171Z,2.30
2017-08-08T16:39:44.463Z,2.40
2017-08-08T16:42:12.008Z,2.63
2017-08-08T16:44:39.542Z,2.60
2017-08-08T16:47:07.104Z,2.80
2017-08-08T16:49:34.623Z,2.40
2017-08-08T16:52:02.138Z,2.60
2017-08-08T16:54:29.679Z,2.83
2017-08-08T16:56:57.239Z,2.57
2017-08-08T16:59:24.801Z,2.30
2017-08-08T17:01:52.347Z,2.40
2017-08-08T17:04:19.890Z,2.83
2017-08-08T17:06:48.186Z,3.33
2017-08-08T17:09:15.735Z,2.23
2017-08-08T17:11:43.260Z,2.70
2017-08-08T17:14:10.830Z,3.23
2017-08-08T17:16:38.343Z,2.47
2017-08-08T17:19:05.896Z,3.13
2017-08-08T17:21:33.418Z,2.70
2017-08-08T17:24:00.967Z,3.37
2017-08-08T17:26:28.488Z,3.03
2017-08-08T17:28:56.014Z,2.80
2017-08-08T17:31:23.559Z,3.20
2017-08-08T17:33:51.075Z,3.30
2017-08-08T17:36:18.620Z,2.67
2017-08-08T17:38:46.137Z,2.67
2017-08-08T17:41:13.680Z,3.13
2017-08-08T17:43:41.201Z,3.13
2017-08-08T17:46:08.739Z,2.87
2017-08-08T17:48:36.261Z,3.07
2017-08-08T17:51:03.802Z,2.93
2017-08-08T17:53:31.321Z,2.90
2017-08-08T17:55:58.887Z,2.70
2017-08-08T17:58:26.411Z,4.50
2017-08-08T18:00:53.934Z,3.03
2017-08-08T18:03:21.481Z,3.47
2017-08-08T18:05:48.998Z,2.83
2017-08-08T18:08:16.536Z,3.10
2017-08-08T18:10:44.050Z,3.27
2017-08-08T18:13:11.591Z,3.27
2017-08-08T18:15:39.111Z,3.07
2017-08-08T18:18:07.421Z,3.70
2017-08-08T18:20:34.943Z,3.37
2017-08-08T18:23:03.246Z,3.67
2017-08-08T18:25:30.757Z,2.80
2017-08-08T18:27:59.068Z,3.27
2017-08-08T18:30:26.587Z,2.93
2017-08-08T18:32:54.102Z,3.40
2017-08-08T18:35:21.647Z,3.13
2017-08-08T18:37:49.935Z,3.10
2017-08-08T18:40:17.477Z,3.50
2017-08-08T18:42:45.763Z,3.07
2017-08-08T18:45:13.299Z,3.07
2017-08-08T18:47:40.819Z,2.63
2017-08-08T18:50:08.356Z,2.60
2017-08-08T18:52:35.879Z,3.00
2017-08-08T18:55:03.410Z,2.70
2017-08-08T18:57:30.926Z,3.10
2017-08-08T18:59:58.462Z,2.23
2017-08-08T19:02:25.986Z,2.37
2017-08-08T19:04:53.527Z,2.80
2017-08-08T19:07:21.047Z,2.73
2017-08-08T19:09:48.596Z,3.23
2017-08-08T19:12:16.118Z,3.00
2017-08-08T19:14:43.642Z,2.90
2017-08-08T19:17:11.179Z,3.13
2017-08-08T19:19:38.704Z,3.30
2017-08-08T19:22:06.248Z,2.97
2017-08-08T19:24:33.780Z,3.50
2017-08-08T19:27:01.328Z,2.87
2017-08-08T19:29:28.851Z,2.50
2017-08-08T19:31:56.399Z,3.10
2017-08-08T19:34:23.931Z,2.57
2017-08-08T19:36:51.466Z,3.10
2017-08-08T19:39:18.983Z,2.70
2017-08-08T19:41:46.528Z,3.00
2017-08-08T19:44:14.047Z,3.80
2017-08-08T19:46:45.679Z,2.93
2017-08-08T19:49:13.975Z,2.50
2017-08-08T19:51:42.291Z,2.80
2017-08-08T19:54:09.811Z,2.93
2017-08-08T19:56:38.091Z,2.93
2017-08-08T19:59:06.394Z,2.70
2017-08-08T20:01:33.907Z,3.07
2017-08-08T20:04:01.454Z,2.60
2017-08-08T20:06:29.754Z,2.33
2017-08-08T20:08:57.291Z,2.97
2017-08-08T20:11:24.812Z,2.50
2017-08-08T20:13:52.351Z,2.50
2017-08-08T20:16:19.877Z,3.00
2017-08-08T20:18:47.420Z,3.67
2017-08-08T20:21:14.942Z,3.83
2017-08-08T20:23:42.487Z,3.03
2017-08-08T20:26:10.011Z,3.57
2017-08-08T20:28:37.551Z,2.43
2017-08-08T20:31:05.076Z,3.27
2017-08-08T20:33:32.591Z,3.50
2017-08-08T20:36:00.898Z,3.13
2017-08-08T20:38:29.192Z,2.93
2017-08-08T20:40:56.731Z,3.50
2017-08-08T20:43:24.262Z,3.60
2017-08-08T20:45:51.812Z,3.93
2017-08-08T20:48:20.098Z,3.40
2017-08-08T20:50:48.408Z,3.50
2017-08-08T20:53:15.922Z,3.27
2017-08-08T20:55:44.250Z,3.20
2017-08-08T20:58:13.754Z,3.70
2017-08-08T21:00:41.297Z,3.53
2017-08-08T21:03:08.819Z,2.97
2017-08-08T21:05:37.129Z,3.23
2017-08-08T21:08:04.647Z,3.27
2017-08-08T21:10:32.938Z,2.90
2017-08-08T21:13:01.240Z,3.33
2017-08-08T21:15:28.755Z,3.10
2017-08-08T21:17:56.300Z,3.10
2017-08-08T21:20:23.825Z,3.13
2017-08-08T21:22:51.362Z,3.07
2017-08-08T21:25:18.903Z,3.67
2017-08-08T21:27:46.447Z,2.63
2017-08-08T21:30:13.975Z,3.53
2017-08-08T21:32:41.523Z,3.20
2017-08-08T21:35:09.037Z,3.40
2017-08-08T21:37:36.579Z,3.67
2017-08-08T21:40:04.103Z,3.90
2017-08-08T21:42:31.651Z,3.00
2017-08-08T21:44:59.176Z,2.50
2017-08-08T21:47:26.699Z,3.10
2017-08-08T21:49:54.240Z,3.40
2017-08-08T21:52:22.532Z,3.23
2017-08-08T21:54:50.075Z,2.67
2017-08-08T21:57:18.658Z,2.83
2017-08-08T21:59:46.194Z,3.67
2017-08-08T22:02:13.722Z,3.20
2017-08-08T22:04:41.257Z,3.30
2017-08-08T22:07:08.776Z,3.30
2017-08-08T22:09:36.313Z,3.67
2017-08-08T22:12:03.830Z,3.97
2017-08-08T22:14:31.361Z,3.20
2017-08-08T22:16:59.649Z,3.37
2017-08-08T22:19:27.211Z,3.60
2017-08-08T22:21:54.741Z,3.50
2017-08-08T22:24:23.031Z,3.60
2017-08-08T22:26:50.567Z,3.63
2017-08-08T22:29:18.082Z,3.80
2017-08-08T22:31:45.617Z,3.43
2017-08-08T22:34:13.174Z,4.50
2017-08-08T22:36:40.714Z,3.60
2017-08-08T22:39:08.238Z,3.63
2017-08-08T22:41:35.774Z,3.30
2017-08-08T22:44:03.296Z,3.40
2017-08-08T22:46:30.842Z,3.17
2017-08-08T22:48:58.367Z,4.37
2017-08-08T22:51:26.674Z,3.77
2017-08-08T22:53:54.967Z,3.40
2017-08-08T22:56:22.506Z,3.30
2017-08-08T22:58:50.032Z,3.37
2017-08-08T23:01:17.571Z,3.87
2017-08-08T23:03:45.090Z,3.70
2017-08-08T23:06:12.611Z,3.63
2017-08-08T23:08:40.146Z,3.77
2017-08-08T23:11:07.661Z,3.57
2017-08-08T23:13:35.204Z,4.40
2017-08-08T23:16:02.721Z,3.87
2017-08-08T23:18:30.258Z,3.77
2017-08-08T23:20:57.785Z,3.23
2017-08-08T23:23:26.095Z,2.77
2017-08-08T23:25:54.378Z,4.13
2017-08-08T23:28:21.919Z,3.40
2017-08-08T23:30:49.443Z,3.97
2017-08-08T23:33:16.987Z,3.70
2017-08-08T23:35:44.502Z,3.33
2017-08-08T23:38:12.783Z,3.27
2017-08-08T23:40:40.323Z,3.80
2017-08-08T23:43:07.856Z,3.63
2017-08-08T23:45:35.396Z,3.73
2017-08-08T23:48:02.927Z,3.93
2017-08-08T23:50:31.231Z,3.63
2017-08-08T23:52:58.750Z,3.13
2017-08-08T23:55:26.295Z,3.70
2017-08-08T23:57:53.824Z,3.20
